Time;durP1;ratioP1;P1;durP2;ratioP2;P2;SDS_P1;SDS_P2;PMS_P1;PMS_P2;Temp;Humidity;BMP_temperature;BMP_pressure;BME280_temperature;BME280_humidity;BME280_pressure;Samples;Min_cycle;Max_cycle;Signal;HPM_P1;HPM_P2
2021/06/19 00:00:23;;;;;;;7.40;6.00;;;;;;;18.57;64.12;100761.39;93323;1209;74875;-68
2021/06/19 00:02:54;;;;;;;7.80;6.50;;;;;;;18.48;64.15;100771.02;93284;1209;82036;-62
2021/06/19 00:05:02;;;;;;;7.10;6.40;;;;;;;18.43;64.58;100773.55;93243;1203;68457;-62
2021/06/19 00:07:15;;;;;;;8.00;6.00;;;;;;;18.38;64.87;100776.16;93133;1214;67958;-63
2021/06/19 00:09:23;;;;;;;7.20;5.90;;;;;;;18.36;64.93;100774.72;93150;1208;85636;-61
2021/06/19 00:11:30;;;;;;;8.70;5.70;;;;;;;18.31;65.46;100778.16;93253;1208;74361;-62
2021/06/19 00:13:38;;;;;;;9.40;6.00;;;;;;;18.28;65.68;100771.25;93268;1209;82242;-63
2021/06/19 00:15:48;;;;;;;10.90;7.30;;;;;;;18.28;65.64;100773.98;93267;1209;67826;-62
2021/06/19 00:17:57;;;;;;;8.80;5.80;;;;;;;18.23;65.87;100773.00;93125;1215;68299;-63
2021/06/19 00:20:07;;;;;;;7.80;6.00;;;;;;;18.20;66.07;100774.30;93276;1214;84951;-62
2021/06/19 00:22:14;;;;;;;9.70;5.70;;;;;;;18.18;66.21;100761.92;93292;1209;74971;-63
2021/06/19 00:24:23;;;;;;;8.70;6.30;;;;;;;18.15;66.28;100768.69;93232;1208;81549;-68
2021/06/19 00:26:33;;;;;;;7.60;6.20;;;;;;;18.13;66.58;100768.06;93195;1209;67724;-68
2021/06/19 00:28:41;;;;;;;9.10;6.30;;;;;;;18.10;66.59;100767.71;93287;1214;68505;-61
2021/06/19 00:30:49;;;;;;;8.30;6.60;;;;;;;18.04;66.66;100758.52;93004;1210;84190;-62
2021/06/19 00:32:59;;;;;;;9.70;7.20;;;;;;;17.97;66.75;100767.84;93197;1209;75531;-68
2021/06/19 00:35:10;;;;;;;8.40;6.40;;;;;;;17.97;66.68;100768.69;93146;1209;81657;-69
2021/06/19 00:37:18;;;;;;;8.90;6.10;;;;;;;17.91;66.87;100766.86;93256;1209;66709;-68
2021/06/19 00:39:29;;;;;;;8.10;6.90;;;;;;;17.89;66.98;100766.27;93205;1209;68241;-62
2021/06/19 00:41:37;;;;;;;10.70;7.20;;;;;;;17.83;67.30;100772.63;93258;1209;85540;-62
2021/06/19 00:43:45;;;;;;;7.30;6.70;;;;;;;17.77;67.27;100768.10;93229;1209;74718;-60
2021/06/19 00:45:53;;;;;;;7.40;6.50;;;;;;;17.77;67.46;100773.56;93263;1209;81846;-62
2021/06/19 00:48:01;;;;;;;9.10;6.90;;;;;;;17.75;67.41;100780.30;93226;1209;66601;-62
2021/06/19 00:50:11;;;;;;;11.00;7.00;;;;;;;17.69;67.70;100777.41;93198;1207;68194;-62
2021/06/19 00:52:23;;;;;;;7.30;6.70;;;;;;;17.66;67.69;100775.13;93229;1209;84284;-63
2021/06/19 00:54:31;;;;;;;7.90;7.20;;;;;;;17.62;67.96;100770.35;93245;1209;74940;-62
2021/06/19 00:56:40;;;;;;;7.30;6.60;;;;;;;17.57;68.06;100776.50;93231;1209;81499;-63
2021/06/19 00:58:48;;;;;;;8.00;6.70;;;;;;;17.53;68.14;100777.13;93192;1202;65846;-68
2021/06/19 01:00:55;;;;;;;8.80;7.00;;;;;;;17.52;68.22;100787.25;93094;1208;67904;-69
2021/06/19 01:03:04;;;;;;;13.40;6.80;;;;;;;17.50;68.44;100775.69;93169;1209;84859;-63
2021/06/19 01:05:16;;;;;;;7.80;6.60;;;;;;;17.44;68.67;100786.70;93222;1209;74661;-62
2021/06/19 01:07:24;;;;;;;8.60;6.30;;;;;;;17.44;68.71;100789.42;93298;1203;80277;-62
2021/06/19 01:09:35;;;;;;;8.80;7.20;;;;;;;17.42;68.75;100783.33;93243;1209;67628;-67
2021/06/19 01:11:45;;;;;;;9.40;6.90;;;;;;;17.36;68.98;100779.59;93248;1215;67919;-67
2021/06/19 01:13:53;;;;;;;8.00;7.30;;;;;;;17.34;68.99;100784.45;93198;1209;85027;-62
2021/06/19 01:16:03;;;;;;;8.10;6.50;;;;;;;17.30;69.25;100777.79;93240;1208;75400;-62
2021/06/19 01:18:10;;;;;;;7.60;6.90;;;;;;;17.26;69.44;100778.44;93204;1209;82015;-63
2021/06/19 01:20:21;;;;;;;10.10;7.20;;;;;;;17.22;69.47;100782.69;93253;1209;68536;-62
2021/06/19 01:22:32;;;;;;;8.00;6.60;;;;;;;17.22;69.44;100780.80;93232;1209;68865;-66
2021/06/19 01:24:40;;;;;;;7.40;6.60;;;;;;;17.21;69.69;100772.81;93228;1209;85212;-62
2021/06/19 01:26:51;;;;;;;8.30;7.20;;;;;;;17.16;69.77;100781.69;93258;1209;74158;-63
2021/06/19 01:29:01;;;;;;;8.50;7.10;;;;;;;17.11;69.78;100782.34;93191;1209;81468;-62
2021/06/19 01:31:09;;;;;;;7.20;6.50;;;;;;;17.07;69.85;100778.39;93243;1209;68530;-62
2021/06/19 01:33:20;;;;;;;8.10;7.30;;;;;;;17.05;69.97;100780.52;93260;1209;68798;-63
2021/06/19 01:35:28;;;;;;;9.70;7.50;;;;;;;17.04;70.11;100777.99;93228;1209;85926;-63
2021/06/19 01:37:43;;;;;;;8.00;7.20;;;;;;;17.01;70.24;100783.89;93235;1209;75231;-63
2021/06/19 01:40:02;;;;;;;8.00;7.30;;;;;;;16.96;70.27;100787.30;93142;1213;82020;-61
2021/06/19 01:42:13;;;;;;;9.70;7.50;;;;;;;16.88;70.21;100779.38;93136;1214;67332;-63
2021/06/19 01:44:21;;;;;;;8.50;7.30;;;;;;;16.88;70.41;100790.30;93212;1209;69090;-68
2021/06/19 01:46:29;;;;;;;8.50;7.80;;;;;;;16.86;70.37;100791.58;93242;1203;85076;-67
2021/06/19 01:48:37;;;;;;;8.40;7.70;;;;;;;16.80;70.60;100790.56;93164;1208;74872;-62
2021/06/19 01:50:44;;;;;;;10.70;7.40;;;;;;;16.77;70.58;100788.28;93218;1209;81158;-62
2021/06/19 01:52:54;;;;;;;8.00;7.30;;;;;;;16.76;70.86;100780.30;93069;1208;68591;-67
2021/06/19 01:55:02;;;;;;;10.00;7.90;;;;;;;16.76;70.76;100783.02;93236;1204;68245;-68
2021/06/19 01:57:10;;;;;;;8.40;7.60;;;;;;;16.77;71.01;100785.55;93225;1209;86005;-67
2021/06/19 01:59:21;;;;;;;9.70;7.70;;;;;;;16.78;71.00;100783.66;93180;1209;75267;-68
2021/06/19 02:01:28;;;;;;;8.90;7.80;;;;;;;16.77;71.08;100788.28;93215;1209;81810;-69
2021/06/19 02:03:36;;;;;;;9.10;8.20;;;;;;;16.75;70.99;100787.67;93231;1209;68839;-68
2021/06/19 02:05:44;;;;;;;10.30;7.90;;;;;;;16.76;71.33;100785.75;93249;1213;68761;-68
2021/06/19 02:07:55;;;;;;;9.40;7.60;;;;;;;16.76;71.50;100789.33;93267;1203;84677;-63
2021/06/19 02:10:06;;;;;;;10.70;8.10;;;;;;;16.76;71.48;100789.33;93246;1208;74660;-62
2021/06/19 02:12:15;;;;;;;9.30;8.40;;;;;;;16.75;71.60;100786.83;93251;1209;81017;-63
2021/06/19 02:14:23;;;;;;;9.80;8.60;;;;;;;16.72;71.66;100787.27;93221;1209;66382;-63
2021/06/19 02:16:31;;;;;;;9.20;8.20;;;;;;;16.67;71.82;100779.75;93040;1209;69685;-63
2021/06/19 02:18:38;;;;;;;9.00;7.80;;;;;;;16.67;71.79;100782.48;93241;1204;84569;-67
2021/06/19 02:20:52;;;;;;;8.20;7.10;;;;;;;16.67;71.92;100787.94;93203;1208;74270;-68
2021/06/19 02:23:01;;;;;;;9.60;7.70;;;;;;;16.66;71.89;100788.14;93235;1209;82068;-68
2021/06/19 02:25:15;;;;;;;9.30;8.40;;;;;;;16.64;72.05;100787.53;93151;1209;65591;-68
2021/06/19 02:27:25;;;;;;;8.30;7.50;;;;;;;16.66;72.04;100775.34;93257;1209;68907;-68
2021/06/19 02:29:36;;;;;;;8.70;7.80;;;;;;;16.62;72.14;100778.73;93218;1209;84840;-62
2021/06/19 02:31:44;;;;;;;9.60;8.10;;;;;;;16.61;72.31;100780.63;93183;1209;75314;-62
2021/06/19 02:33:51;;;;;;;8.90;7.70;;;;;;;16.61;72.49;100777.89;93237;1209;81161;-62
2021/06/19 02:36:00;;;;;;;11.90;8.10;;;;;;;16.61;72.51;100783.34;93239;1209;66344;-62
2021/06/19 02:38:09;;;;;;;9.40;8.30;;;;;;;16.64;72.73;100785.64;93236;1209;70510;-68
2021/06/19 02:40:20;;;;;;;9.40;8.40;;;;;;;16.66;72.77;100785.41;93231;1209;84863;-68
2021/06/19 02:42:31;;;;;;;8.60;7.80;;;;;;;16.67;72.54;100787.94;93270;1209;74115;-64
2021/06/19 02:44:42;;;;;;;9.70;7.80;;;;;;;16.72;72.73;100787.27;93213;1209;80848;-69
2021/06/19 02:46:50;;;;;;;8.50;7.80;;;;;;;16.75;72.91;100789.55;93236;1207;65901;-69
2021/06/19 02:49:00;;;;;;;10.50;8.20;;;;;;;16.77;72.80;100791.00;93166;1212;69130;-68
2021/06/19 02:51:08;;;;;;;9.60;8.00;;;;;;;16.83;72.69;100792.86;93247;1209;83835;-68
2021/06/19 02:53:16;;;;;;;10.80;8.80;;;;;;;16.85;72.83;100795.35;93255;1203;75531;-67
2021/06/19 02:55:26;;;;;;;9.20;8.20;;;;;;;16.90;72.76;100790.06;93234;1209;80469;-68
2021/06/19 02:57:33;;;;;;;8.60;7.70;;;;;;;16.94;72.86;100786.70;93062;1209;67974;-64
2021/06/19 02:59:41;;;;;;;10.70;8.40;;;;;;;16.97;72.69;100782.69;93074;1209;68877;-65
2021/06/19 03:01:49;;;;;;;10.30;8.60;;;;;;;17.00;72.87;100793.97;93331;1203;84445;-65
2021/06/19 03:03:56;;;;;;;8.90;8.10;;;;;;;17.04;72.85;100794.38;93270;1207;73690;-69
2021/06/19 03:06:04;;;;;;;9.30;8.50;;;;;;;17.07;72.90;100789.31;93295;1202;82230;-71
2021/06/19 03:08:15;;;;;;;9.50;8.30;;;;;;;17.14;72.97;100791.16;93204;1209;67922;-65
2021/06/19 03:10:25;;;;;;;9.10;8.30;;;;;;;17.17;72.90;100793.45;93105;1211;68578;-62
2021/06/19 03:12:33;;;;;;;9.40;8.40;;;;;;;17.22;72.90;100796.34;93049;1217;85005;-68
2021/06/19 03:14:41;;;;;;;9.00;8.20;;;;;;;17.23;72.95;100784.34;93176;1209;75585;-69
2021/06/19 03:16:48;;;;;;;9.60;8.60;;;;;;;17.28;72.93;100790.00;93048;1208;81883;-68
2021/06/19 03:18:56;;;;;;;9.90;8.90;;;;;;;17.36;72.80;100792.44;93222;1209;67517;-63
2021/06/19 03:21:05;;;;;;;9.40;7.90;;;;;;;17.44;72.73;100790.23;93251;1209;69148;-63
2021/06/19 03:23:15;;;;;;;10.50;8.30;;;;;;;17.53;72.75;100785.33;93300;1209;86151;-64
2021/06/19 03:25:26;;;;;;;10.30;9.30;;;;;;;17.61;72.98;100790.52;93264;1209;75734;-64
2021/06/19 03:27:34;;;;;;;10.60;8.70;;;;;;;17.95;72.68;100778.18;93114;1209;82848;-69
2021/06/19 03:29:43;;;;;;;10.00;9.00;;;;;;;18.73;72.22;100779.08;93266;1214;67986;-68
2021/06/19 03:31:51;;;;;;;11.90;9.10;;;;;;;19.67;71.83;100783.61;93233;1209;69464;-70
2021/06/19 03:33:59;;;;;;;10.20;9.20;;;;;;;20.52;70.97;100785.47;93270;1208;86240;-63
2021/06/19 03:36:10;;;;;;;9.30;8.40;;;;;;;21.38;69.73;100784.28;93283;1209;75731;-63
2021/06/19 03:38:18;;;;;;;12.40;8.50;;;;;;;22.58;68.51;100780.72;93285;1209;81793;-69
2021/06/19 03:40:28;;;;;;;7.50;6.70;;;;;;;23.83;66.77;100783.75;93316;1209;67283;-69
2021/06/19 03:42:36;;;;;;;9.10;7.40;;;;;;;24.89;64.63;100783.35;93324;1209;69896;-62
2021/06/19 03:44:44;;;;;;;8.80;7.80;;;;;;;25.89;63.01;100782.50;93221;1209;85544;-62
2021/06/19 03:46:52;;;;;;;10.50;7.90;;;;;;;26.86;60.71;100775.45;93314;1209;75141;-62
2021/06/19 03:48:59;;;;;;;8.40;7.60;;;;;;;27.82;58.97;100781.02;93237;1207;81677;-63
2021/06/19 03:51:07;;;;;;;9.60;6.90;;;;;;;28.49;57.12;100779.93;93279;1214;65149;-62
2021/06/19 03:53:15;;;;;;;7.50;6.50;;;;;;;29.09;55.46;100785.77;93291;1209;68733;-62
2021/06/19 03:55:23;;;;;;;8.30;7.50;;;;;;;29.63;53.37;100774.83;93283;1209;85181;-62
2021/06/19 03:57:36;;;;;;;8.10;7.30;;;;;;;30.04;51.69;100779.63;93155;1208;76450;-67
2021/06/19 03:59:43;;;;;;;9.40;7.40;;;;;;;30.52;50.04;100780.86;93225;1209;81027;-69
2021/06/19 04:01:52;;;;;;;8.00;7.20;;;;;;;31.31;48.42;100781.26;93275;1209;67559;-68
2021/06/19 04:04:00;;;;;;;8.60;6.90;;;;;;;31.59;47.28;100777.17;93270;1209;68802;-60
2021/06/19 04:06:08;;;;;;;9.10;7.00;;;;;;;31.83;45.60;100768.44;93282;1209;86284;-60
2021/06/19 04:08:16;;;;;;;8.80;6.40;;;;;;;32.04;44.61;100780.72;93281;1209;76146;-68
2021/06/19 04:10:25;;;;;;;8.90;6.60;;;;;;;32.23;43.85;100781.28;93152;1208;80559;-68
2021/06/19 04:12:36;;;;;;;7.90;6.70;;;;;;;32.51;42.60;100777.08;93261;1209;66047;-63
2021/06/19 04:14:44;;;;;;;7.00;6.40;;;;;;;32.83;41.91;100766.59;93275;1209;69699;-63
2021/06/19 04:16:51;;;;;;;7.60;6.80;;;;;;;33.20;40.44;100765.97;93265;1209;85918;-62
2021/06/19 04:18:59;;;;;;;7.30;6.50;;;;;;;33.69;39.54;100762.59;93254;1210;74029;-62
2021/06/19 04:21:11;;;;;;;7.80;6.70;;;;;;;34.40;38.46;100773.98;93250;1209;81156;-62
2021/06/19 04:23:19;;;;;;;8.40;7.00;;;;;;;34.65;37.91;100772.20;93154;1208;66889;-63
2021/06/19 04:25:26;;;;;;;9.40;6.70;;;;;;;34.61;36.98;100774.86;93277;1209;67797;-62
2021/06/19 04:27:44;;;;;;;7.10;6.50;;;;;;;34.78;36.17;100771.92;93291;1209;85740;-63
2021/06/19 04:29:53;;;;;;;7.80;7.00;;;;;;;35.05;35.34;100775.36;93258;1206;73953;-61
2021/06/19 04:32:02;;;;;;;7.60;6.70;;;;;;;35.33;34.63;100774.44;93285;1209;81733;-62
2021/06/19 04:34:10;;;;;;;7.70;6.40;;;;;;;35.63;34.08;100769.52;93253;1209;67958;-68
2021/06/19 04:36:19;;;;;;;6.50;5.90;;;;;;;36.14;32.86;100767.27;93242;1208;69349;-69
2021/06/19 04:38:27;;;;;;;9.50;6.20;;;;;;;36.40;32.68;100768.53;93230;1209;86610;-62
2021/06/19 04:40:38;;;;;;;6.10;5.20;;;;;;;36.56;32.51;100769.48;93277;1214;74531;-61
2021/06/19 04:42:54;;;;;;;8.00;5.60;;;;;;;36.65;31.11;100775.80;93209;1215;82174;-62
2021/06/19 04:45:07;;;;;;;4.90;4.40;;;;;;;36.43;31.11;100769.81;93194;1209;67146;-62
2021/06/19 04:47:14;;;;;;;5.00;4.00;;;;;;;36.90;31.36;100770.10;93301;1209;67841;-62
2021/06/19 04:49:22;;;;;;;6.10;4.40;;;;;;;37.51;29.77;100774.37;93201;1213;85499;-62
2021/06/19 04:51:30;;;;;;;5.40;4.40;;;;;;;37.86;29.47;100777.30;93273;1209;74568;-62
2021/06/19 04:53:38;;;;;;;4.80;4.40;;;;;;;37.83;29.16;100782.88;93211;1208;81409;-61
2021/06/19 04:55:45;;;;;;;4.50;4.00;;;;;;;38.32;28.83;100768.05;93281;1207;68184;-62
2021/06/19 04:57:57;;;;;;;5.50;4.10;;;;;;;38.77;27.15;100763.86;93157;1208;68222;-61
2021/06/19 05:00:07;;;;;;;4.40;4.00;;;;;;;38.69;27.65;100767.69;93291;1209;84649;-61
2021/06/19 05:02:15;;;;;;;6.00;4.40;;;;;;;39.20;26.30;100765.63;93318;1207;74876;-61
2021/06/19 05:04:23;;;;;;;6.20;3.60;;;;;;;39.37;26.43;100763.13;93271;1207;81507;-62
2021/06/19 05:06:34;;;;;;;4.70;3.80;;;;;;;39.55;26.17;100769.14;93156;1208;65908;-62
2021/06/19 05:08:45;;;;;;;4.20;3.90;;;;;;;39.83;25.62;100757.55;93229;1209;69099;-67
2021/06/19 05:10:52;;;;;;;4.10;3.70;;;;;;;39.84;25.55;100762.82;93281;1209;85376;-68
2021/06/19 05:13:00;;;;;;;4.70;4.20;;;;;;;39.91;25.17;100765.79;93318;1209;74394;-67
2021/06/19 05:15:11;;;;;;;6.20;4.20;;;;;;;40.08;24.95;100753.95;93287;1209;81977;-68
2021/06/19 05:17:18;;;;;;;6.20;3.90;;;;;;;40.16;24.59;100754.91;93163;1208;65382;-68
2021/06/19 05:19:26;;;;;;;6.30;4.30;;;;;;;40.35;24.67;100760.47;93232;1209;68492;-62
2021/06/19 05:21:33;;;;;;;4.30;3.90;;;;;;;40.72;23.20;100757.78;93282;1211;85178;-62
2021/06/19 05:23:41;;;;;;;4.20;3.80;;;;;;;40.78;23.08;100753.41;93135;1215;75308;-62
2021/06/19 05:25:49;;;;;;;4.40;4.00;;;;;;;40.81;23.50;100749.81;93268;1209;80705;-62
2021/06/19 05:27:56;;;;;;;4.70;3.80;;;;;;;40.57;23.29;100753.92;93280;1207;66913;-68
2021/06/19 05:30:07;;;;;;;5.50;4.00;;;;;;;40.77;23.88;100756.65;93233;1209;69706;-67
2021/06/19 05:32:14;;;;;;;5.10;3.80;;;;;;;40.90;23.65;100753.21;93317;1209;84790;-67
2021/06/19 05:34:27;;;;;;;5.60;3.80;;;;;;;41.39;22.34;100760.70;93271;1209;75151;-62
2021/06/19 05:36:37;;;;;;;4.30;3.70;;;;;;;41.37;22.50;100761.06;93261;1208;80424;-62
2021/06/19 05:38:45;;;;;;;4.40;3.90;;;;;;;41.17;22.51;100759.61;93227;1209;65848;-67
2021/06/19 05:40:52;;;;;;;5.40;3.90;;;;;;;41.37;21.84;100755.39;93289;1209;69641;-68
2021/06/19 05:43:00;;;;;;;4.00;3.60;;;;;;;41.56;21.98;100755.22;93295;1214;86669;-62
2021/06/19 05:45:11;;;;;;;3.90;3.40;;;;;;;41.78;21.66;100750.59;93232;1214;75229;-61
2021/06/19 05:47:19;;;;;;;4.40;3.20;;;;;;;42.07;21.04;100752.45;93286;1207;80302;-62
2021/06/19 05:49:27;;;;;;;4.80;3.20;;;;;;;42.07;21.12;100757.30;93237;1209;65765;-62
2021/06/19 05:51:38;;;;;;;4.10;3.20;;;;;;;42.36;20.96;100752.69;93259;1209;70040;-61
2021/06/19 05:53:45;;;;;;;4.80;3.50;;;;;;;42.28;20.75;100746.13;93263;1209;86246;-67
2021/06/19 05:55:53;;;;;;;3.90;3.50;;;;;;;42.24;20.58;100748.96;93257;1209;76364;-67
2021/06/19 05:58:04;;;;;;;3.40;3.10;;;;;;;42.13;21.11;100738.70;93257;1214;81226;-68
2021/06/19 06:00:15;;;;;;;4.30;3.10;;;;;;;42.39;21.01;100749.06;93120;1213;67094;-69
2021/06/19 06:02:23;;;;;;;3.50;3.00;;;;;;;42.75;20.18;100737.51;93276;1209;69170;-68
2021/06/19 06:04:31;;;;;;;3.40;3.10;;;;;;;42.66;19.72;100741.95;93345;1203;86134;-63
2021/06/19 06:06:38;;;;;;;6.00;3.60;;;;;;;42.59;19.60;100741.89;93249;1208;75437;-61
2021/06/19 06:08:46;;;;;;;3.10;2.80;;;;;;;42.73;19.91;100745.63;93274;1209;80520;-62
2021/06/19 06:10:54;;;;;;;4.60;3.10;;;;;;;42.50;19.63;100744.27;93161;1208;67325;-61
2021/06/19 06:13:05;;;;;;;4.00;3.40;;;;;;;42.32;19.90;100744.96;93292;1209;69643;-62
2021/06/19 06:15:14;;;;;;;3.90;2.80;;;;;;;42.33;19.69;100748.63;93219;1208;85324;-62
2021/06/19 06:17:23;;;;;;;3.90;3.10;;;;;;;42.34;19.54;100753.89;93307;1209;74389;-62
2021/06/19 06:19:30;;;;;;;2.80;2.60;;;;;;;42.58;19.49;100741.07;93292;1209;80807;-67
2021/06/19 06:21:38;;;;;;;2.90;2.60;;;;;;;42.71;19.70;100750.09;93274;1207;66432;-67
2021/06/19 06:23:46;;;;;;;4.20;3.10;;;;;;;42.75;19.67;100754.56;93298;1209;68581;-69
2021/06/19 06:25:54;;;;;;;6.20;3.50;;;;;;;42.93;19.23;100748.98;93285;1209;86078;-68
2021/06/19 06:28:05;;;;;;;4.70;3.30;;;;;;;43.41;18.98;100753.23;93265;1209;74765;-62
2021/06/19 06:30:18;;;;;;;4.50;3.20;;;;;;;43.46;19.08;100754.86;93250;1209;81482;-62
2021/06/19 06:32:26;;;;;;;3.60;2.90;;;;;;;43.56;18.90;100744.73;93353;1203;66941;-61
2021/06/19 06:34:34;;;;;;;5.40;2.80;;;;;;;43.45;18.80;100750.41;93264;1207;69492;-68
2021/06/19 06:36:43;;;;;;;4.10;3.40;;;;;;;43.43;19.02;100738.63;93313;1209;86373;-69
2021/06/19 06:38:50;;;;;;;4.70;2.90;;;;;;;43.58;18.08;100745.13;93262;1209;75071;-63
2021/06/19 06:40:59;;;;;;;4.60;3.00;;;;;;;43.59;18.33;100746.77;93230;1208;81825;-61
2021/06/19 06:43:07;;;;;;;3.10;2.80;;;;;;;43.44;18.47;100741.05;93269;1209;67859;-68
2021/06/19 06:45:16;;;;;;;5.00;3.20;;;;;;;43.73;18.60;100741.13;93302;1209;68843;-67
2021/06/19 06:47:24;;;;;;;2.70;2.40;;;;;;;43.66;18.31;100741.89;93306;1209;85866;-67
2021/06/19 06:49:34;;;;;;;3.50;3.10;;;;;;;43.92;18.32;100732.19;93307;1209;73951;-67
2021/06/19 06:51:45;;;;;;;4.70;3.30;;;;;;;44.14;17.82;100739.52;93252;1208;81165;-69
2021/06/19 06:53:56;;;;;;;5.40;3.30;;;;;;;43.66;18.20;100736.20;93279;1209;67436;-62
2021/06/19 06:56:05;;;;;;;4.00;3.20;;;;;;;43.63;18.36;100736.19;93267;1214;67866;-62
2021/06/19 06:58:12;;;;;;;4.20;2.60;;;;;;;43.81;18.04;100731.37;93291;1208;85565;-68
2021/06/19 07:00:22;;;;;;;7.00;3.50;;;;;;;43.63;18.88;100737.01;93265;1209;74465;-67
2021/06/19 07:02:31;;;;;;;3.50;3.00;;;;;;;43.85;18.68;100738.68;93307;1208;80991;-64
2021/06/19 07:04:39;;;;;;;3.30;2.70;;;;;;;43.94;18.06;100741.13;93281;1209;67477;-61
2021/06/19 07:06:46;;;;;;;3.20;2.80;;;;;;;43.75;18.29;100750.07;93278;1209;68010;-64
2021/06/19 07:08:55;;;;;;;6.30;3.20;;;;;;;44.07;18.47;100747.20;93239;1207;85841;-61
2021/06/19 07:11:02;;;;;;;5.10;3.40;;;;;;;43.52;18.99;100744.72;93320;1203;74954;-60
2021/06/19 07:13:13;;;;;;;3.30;2.80;;;;;;;43.83;18.23;100755.36;93248;1209;80435;-63
2021/06/19 07:15:22;;;;;;;5.50;2.80;;;;;;;43.86;18.60;100753.73;93199;1209;67501;-68
2021/06/19 07:17:30;;;;;;;5.60;3.20;;;;;;;43.60;18.42;100754.89;93229;1209;69034;-67
2021/06/19 07:19:40;;;;;;;3.10;2.80;;;;;;;43.72;18.92;100760.20;93228;1210;85987;-63
2021/06/19 07:21:50;;;;;;;3.40;2.80;;;;;;;43.80;18.35;100761.05;93224;1209;75433;-61
2021/06/19 07:23:59;;;;;;;5.40;2.80;;;;;;;43.93;18.02;100765.94;93200;1214;81476;-61
2021/06/19 07:26:07;;;;;;;5.90;3.50;;;;;;;43.86;18.25;100753.73;93269;1209;66920;-63
2021/06/19 07:28:15;;;;;;;4.50;2.70;;;;;;;43.80;18.64;100749.66;93261;1209;69309;-72
2021/06/19 07:30:24;;;;;;;3.70;2.70;;;;;;;43.60;19.30;100752.05;93218;1214;85376;-72
2021/06/19 07:32:35;;;;;;;5.70;3.00;;;;;;;43.80;18.72;100747.63;93213;1207;74013;-71
2021/06/19 07:34:43;;;;;;;4.20;3.00;;;;;;;43.89;18.40;100747.23;93250;1209;81758;-71
2021/06/19 07:36:57;;;;;;;4.80;3.20;;;;;;;43.79;17.80;100745.99;93227;1214;66011;-73
2021/06/19 07:39:09;;;;;;;4.00;2.60;;;;;;;43.36;19.15;100745.11;93297;1209;69145;-69
2021/06/19 07:41:16;;;;;;;4.90;2.80;;;;;;;43.62;19.03;100741.09;93320;1209;85525;-68
2021/06/19 07:43:24;;;;;;;4.10;2.60;;;;;;;43.96;18.99;100750.06;93306;1208;75643;-69
2021/06/19 07:45:33;;;;;;;3.90;2.70;;;;;;;43.80;19.27;100746.81;93236;1209;81576;-69
2021/06/19 07:47:42;;;;;;;3.60;2.90;;;;;;;43.48;19.02;100745.94;93321;1207;65751;-71
2021/06/19 07:49:53;;;;;;;3.90;2.80;;;;;;;43.64;18.47;100747.19;93297;1209;67653;-70
2021/06/19 07:52:03;;;;;;;5.60;3.10;;;;;;;43.67;18.67;100752.07;93278;1209;85084;-68
2021/06/19 07:54:11;;;;;;;5.20;2.80;;;;;;;44.15;18.20;100743.98;93284;1209;76133;-69
2021/06/19 07:56:18;;;;;;;3.30;3.00;;;;;;;44.12;18.00;100739.09;93290;1209;80739;-70
2021/06/19 07:58:26;;;;;;;5.80;2.80;;;;;;;43.55;18.91;100741.06;93288;1209;68597;-72
2021/06/19 08:00:34;;;;;;;3.20;2.40;;;;;;;43.68;18.64;100738.66;93310;1209;70076;-74
2021/06/19 08:02:43;;;;;;;6.50;2.90;;;;;;;43.82;18.24;100744.36;93268;1209;85083;-68
2021/06/19 08:04:51;;;;;;;5.20;2.90;;;;;;;44.11;18.04;100743.16;93280;1209;75052;-68
2021/06/19 08:06:59;;;;;;;4.40;2.70;;;;;;;43.59;17.14;100741.08;93263;1209;82113;-69
2021/06/19 08:09:09;;;;;;;3.90;2.60;;;;;;;43.31;18.59;100742.63;93276;1214;65726;-70
2021/06/19 08:11:20;;;;;;;5.60;2.90;;;;;;;43.41;19.12;100741.86;93275;1209;68584;-68
2021/06/19 08:13:27;;;;;;;4.50;2.50;;;;;;;43.55;18.59;100741.06;93157;1208;85022;-75
2021/06/19 08:15:35;;;;;;;4.30;2.90;;;;;;;43.31;17.85;100730.42;93167;1209;77612;-72
2021/06/19 08:17:43;;;;;;;3.60;2.60;;;;;;;43.51;17.88;100728.06;93253;1209;81757;-72
2021/06/19 08:19:51;;;;;;;4.00;2.40;;;;;;;43.29;18.57;100722.31;93241;1210;65722;-73
2021/06/19 08:22:03;;;;;;;5.00;2.40;;;;;;;43.07;19.45;100726.31;93307;1209;70203;-72
2021/06/19 08:24:10;;;;;;;;;;;;;;;43.28;18.32;100737.73;93113;1208;88021;-73
2021/06/19 08:26:18;;;;;;;3.70;2.30;;;;;;;43.11;18.24;100732.81;93296;1207;73941;-73
2021/06/19 08:28:25;;;;;;;3.50;2.50;;;;;;;43.09;17.79;100729.56;93263;1209;81773;-73
2021/06/19 08:30:36;;;;;;;3.30;2.50;;;;;;;43.16;19.02;100723.06;93316;1209;66566;-73
2021/06/19 08:32:44;;;;;;;2.60;2.30;;;;;;;43.10;18.56;100730.38;93289;1209;69722;-72
2021/06/19 08:34:53;;;;;;;6.80;2.60;;;;;;;43.18;18.08;100732.84;93273;1208;86180;-64
2021/06/19 08:37:00;;;;;;;3.90;2.40;;;;;;;43.07;18.45;100732.00;93319;1209;75799;-65
2021/06/19 08:39:08;;;;;;;3.70;2.50;;;;;;;42.83;18.14;100718.45;93225;1208;81247;-61
2021/06/19 08:41:22;;;;;;;2.90;2.70;;;;;;;43.01;18.57;100722.22;93265;1209;66175;-60
2021/06/19 08:43:32;;;;;;;3.50;2.50;;;;;;;42.84;18.55;100728.62;93223;1214;69021;-61
2021/06/19 08:45:41;;;;;;;3.20;2.00;;;;;;;42.60;18.87;100723.64;93290;1214;86166;-68
2021/06/19 08:47:50;;;;;;;4.70;2.40;;;;;;;42.88;18.55;100730.25;93268;1208;75390;-79
2021/06/19 08:50:02;;;;;;;5.70;2.70;;;;;;;42.86;17.94;100720.49;93217;1209;81549;-73
2021/06/19 08:52:11;;;;;;;4.80;2.20;;;;;;;42.71;18.15;100728.17;93246;1209;68089;-72
2021/06/19 08:54:19;;;;;;;5.00;2.20;;;;;;;42.64;17.95;100724.45;93257;1214;69786;-70
2021/06/19 08:56:27;;;;;;;2.30;2.10;;;;;;;42.27;18.66;100721.79;93309;1209;86157;-69
2021/06/19 08:58:35;;;;;;;4.00;2.30;;;;;;;42.24;19.04;100726.24;93290;1208;75531;-74
2021/06/19 09:00:43;;;;;;;2.80;2.50;;;;;;;42.15;19.36;100719.27;93254;1209;80482;-73
2021/06/19 09:02:52;;;;;;;4.80;2.30;;;;;;;41.86;19.13;100718.22;93325;1209;65918;-72
2021/06/19 09:05:08;;;;;;;2.40;2.20;;;;;;;41.54;19.14;100714.22;93241;1209;70729;-70
2021/06/19 09:07:44;;;;;;;4.00;2.30;;;;;;;41.43;19.64;100722.64;93330;1209;85896;-73
2021/06/19 09:09:56;;;;;;;4.30;2.40;;;;;;;41.20;19.41;100714.28;93323;1209;75670;-72
2021/06/19 09:12:07;;;;;;;3.80;2.10;;;;;;;40.97;19.91;100721.28;93303;1203;80391;-69
2021/06/19 09:14:18;;;;;;;4.20;2.30;;;;;;;40.90;19.73;100715.51;93296;1209;65512;-71
2021/06/19 09:16:26;;;;;;;3.20;2.20;;;;;;;40.08;20.64;100714.32;93345;1209;68557;-74
2021/06/19 09:18:34;;;;;;;3.60;2.30;;;;;;;39.91;20.93;100714.84;93238;1209;85586;-70
2021/06/19 09:20:51;;;;;;;3.50;2.20;;;;;;;39.62;21.30;100709.84;93307;1209;73900;-69
2021/06/19 09:23:10;;;;;;;3.70;2.40;;;;;;;39.43;21.46;100707.91;93326;1209;81473;-72
2021/06/19 09:25:19;;;;;;;3.10;2.10;;;;;;;38.99;21.59;100706.61;93241;1209;65042;-71
2021/06/19 09:27:36;;;;;;;3.80;2.20;;;;;;;38.90;22.35;100706.83;93335;1203;70081;-71
2021/06/19 09:29:47;;;;;;;4.00;2.20;;;;;;;38.50;22.73;100702.70;93228;1209;86098;-68
2021/06/19 09:31:56;;;;;;;2.80;2.30;;;;;;;38.39;22.89;100699.64;93266;1210;73746;-66
2021/06/19 09:34:13;;;;;;;3.50;2.30;;;;;;;38.22;23.71;100700.84;93255;1209;81660;-69
2021/06/19 09:36:43;;;;;;;5.00;2.50;;;;;;;38.00;23.54;100698.70;93301;1209;67415;-69
2021/06/19 09:39:08;;;;;;;6.40;3.00;;;;;;;37.66;24.21;100700.23;93153;1201;68736;-72
2021/06/19 09:41:33;;;;;;;4.80;2.70;;;;;;;37.67;25.15;100701.88;93196;1208;87409;-74
2021/06/19 09:43:48;;;;;;;6.00;2.70;;;;;;;37.54;25.65;100697.52;93288;1209;74593;-71
2021/06/19 09:46:08;;;;;;;6.50;3.50;;;;;;;37.36;25.37;100695.38;93277;1209;82826;-70
2021/06/19 09:48:31;;;;;;;4.30;2.90;;;;;;;37.19;25.47;100685.27;93269;1209;66668;-71
2021/06/19 09:50:37;;;;;;;;;;;;;;;37.07;26.39;100685.31;93281;1209;70468;-71
2021/06/19 09:52:45;;;;;;;3.20;2.60;;;;;;;37.12;26.97;100673.78;93188;1206;84766;-68
2021/06/19 09:55:02;;;;;;;4.50;2.70;;;;;;;37.18;26.48;100680.80;93156;1208;75201;-69
2021/06/19 09:57:13;;;;;;;3.10;2.60;;;;;;;37.25;27.16;100690.25;93233;1204;81050;-70
2021/06/19 09:59:29;;;;;;;4.00;3.10;;;;;;;37.16;26.86;100681.17;93237;1209;67034;-70
2021/06/19 10:01:40;;;;;;;4.60;2.90;;;;;;;37.15;27.59;100689.97;93292;1209;68347;-72